sensor_id;sensor_type;location;lat;lon;timestamp;temperature;humidity
1956;DHT22;978;48.314;11.562;2023-02-24T00:00:58;19.40;72.00
1956;DHT22;978;48.314;11.562;2023-02-24T00:03:34;19.50;72.00
1956;DHT22;978;48.314;11.562;2023-02-24T00:06:02;19.40;71.90
1956;DHT22;978;48.314;11.562;2023-02-24T00:08:34;19.50;72.00
1956;DHT22;978;48.314;11.562;2023-02-24T00:11:06;19.50;72.00
1956;DHT22;978;48.314;11.562;2023-02-24T00:13:34;19.50;72.00
1956;DHT22;978;48.314;11.562;2023-02-24T00:16:01;19.50;72.60
1956;DHT22;978;48.314;11.562;2023-02-24T00:18:29;19.50;72.00
1956;DHT22;978;48.314;11.562;2023-02-24T00:21:03;19.50;72.00
1956;DHT22;978;48.314;11.562;2023-02-24T00:23:33;19.40;71.90
1956;DHT22;978;48.314;11.562;2023-02-24T00:26:00;19.50;72.00
1956;DHT22;978;48.314;11.562;2023-02-24T00:28:27;19.50;72.00
1956;DHT22;978;48.314;11.562;2023-02-24T00:30:54;19.50;71.90
1956;DHT22;978;48.314;11.562;2023-02-24T00:33:21;19.50;72.00
1956;DHT22;978;48.314;11.562;2023-02-24T00:35:49;19.40;71.90
1956;DHT22;978;48.314;11.562;2023-02-24T00:38:17;19.50;72.00
1956;DHT22;978;48.314;11.562;2023-02-24T00:40:44;19.50;72.00
1956;DHT22;978;48.314;11.562;2023-02-24T00:43:10;19.50;72.00
1956;DHT22;978;48.314;11.562;2023-02-24T00:45:37;19.50;72.00
1956;DHT22;978;48.314;11.562;2023-02-24T00:48:04;19.50;72.00
1956;DHT22;978;48.314;11.562;2023-02-24T00:50:35;19.50;72.00
1956;DHT22;978;48.314;11.562;2023-02-24T00:53:04;19.50;72.00
1956;DHT22;978;48.314;11.562;2023-02-24T00:55:32;19.50;72.00
1956;DHT22;978;48.314;11.562;2023-02-24T00:58:02;19.40;71.90
1956;DHT22;978;48.314;11.562;2023-02-24T01:00:29;19.50;72.00
1956;DHT22;978;48.314;11.562;2023-02-24T01:03:01;19.50;71.90
1956;DHT22;978;48.314;11.562;2023-02-24T01:05:27;19.50;72.00
1956;DHT22;978;48.314;11.562;2023-02-24T01:07:55;19.50;71.90
1956;DHT22;978;48.314;11.562;2023-02-24T01:10:21;19.50;71.90
1956;DHT22;978;48.314;11.562;2023-02-24T01:12:52;19.50;71.90
1956;DHT22;978;48.314;11.562;2023-02-24T01:15:20;19.50;71.90
1956;DHT22;978;48.314;11.562;2023-02-24T01:17:47;19.50;71.90
1956;DHT22;978;48.314;11.562;2023-02-24T01:20:14;19.50;71.90
1956;DHT22;978;48.314;11.562;2023-02-24T01:22:48;19.50;71.90
1956;DHT22;978;48.314;11.562;2023-02-24T01:25:15;19.40;71.90
1956;DHT22;978;48.314;11.562;2023-02-24T01:27:44;19.50;71.90
1956;DHT22;978;48.314;11.562;2023-02-24T01:30:13;19.50;72.00
1956;DHT22;978;48.314;11.562;2023-02-24T01:32:42;19.40;71.90
1956;DHT22;978;48.314;11.562;2023-02-24T01:35:11;19.50;71.90
1956;DHT22;978;48.314;11.562;2023-02-24T01:37:38;19.50;71.90
1956;DHT22;978;48.314;11.562;2023-02-24T01:40:09;19.50;71.90
1956;DHT22;978;48.314;11.562;2023-02-24T01:42:42;19.50;71.90
1956;DHT22;978;48.314;11.562;2023-02-24T01:45:16;19.50;71.90
1956;DHT22;978;48.314;11.562;2023-02-24T01:47:44;19.50;71.90
1956;DHT22;978;48.314;11.562;2023-02-24T01:50:12;19.50;71.90
1956;DHT22;978;48.314;11.562;2023-02-24T01:52:44;19.50;71.90
1956;DHT22;978;48.314;11.562;2023-02-24T01:55:15;19.50;71.90
1956;DHT22;978;48.314;11.562;2023-02-24T01:57:45;19.50;71.90
1956;DHT22;978;48.314;11.562;2023-02-24T02:00:14;19.50;71.90
1956;DHT22;978;48.314;11.562;2023-02-24T02:03:01;19.50;71.90
1956;DHT22;978;48.314;11.562;2023-02-24T02:05:29;19.50;71.90
1956;DHT22;978;48.314;11.562;2023-02-24T02:07:56;19.40;71.80
1956;DHT22;978;48.314;11.562;2023-02-24T02:10:23;19.50;71.90
1956;DHT22;978;48.314;11.562;2023-02-24T02:12:53;19.50;71.90
1956;DHT22;978;48.314;11.562;2023-02-24T02:15:21;19.50;71.90
1956;DHT22;978;48.314;11.562;2023-02-24T02:17:56;19.50;71.80
1956;DHT22;978;48.314;11.562;2023-02-24T02:23:52;19.50;71.90
1956;DHT22;978;48.314;11.562;2023-02-24T02:26:37;19.50;71.90
1956;DHT22;978;48.314;11.562;2023-02-24T02:32:38;19.50;71.80
1956;DHT22;978;48.314;11.562;2023-02-24T02:35:14;19.50;71.90
1956;DHT22;978;48.314;11.562;2023-02-24T02:37:50;19.50;71.80
1956;DHT22;978;48.314;11.562;2023-02-24T02:40:22;19.50;71.90
1956;DHT22;978;48.314;11.562;2023-02-24T02:42:56;19.50;71.90
1956;DHT22;978;48.314;11.562;2023-02-24T02:45:26;19.50;72.50
1956;DHT22;978;48.314;11.562;2023-02-24T02:47:58;19.40;71.80
1956;DHT22;978;48.314;11.562;2023-02-24T02:50:33;19.50;71.80
1956;DHT22;978;48.314;11.562;2023-02-24T02:53:04;19.50;71.80
1956;DHT22;978;48.314;11.562;2023-02-24T02:55:37;19.50;71.80
1956;DHT22;978;48.314;11.562;2023-02-24T02:58:08;19.50;71.80
1956;DHT22;978;48.314;11.562;2023-02-24T03:00:39;19.50;71.80
1956;DHT22;978;48.314;11.562;2023-02-24T03:03:10;19.40;71.80
1956;DHT22;978;48.314;11.562;2023-02-24T03:05:42;19.50;71.80
1956;DHT22;978;48.314;11.562;2023-02-24T03:08:14;19.50;71.80
1956;DHT22;978;48.314;11.562;2023-02-24T03:10:44;19.50;71.80
1956;DHT22;978;48.314;11.562;2023-02-24T03:13:17;19.40;72.40
1956;DHT22;978;48.314;11.562;2023-02-24T03:15:45;19.50;71.80
1956;DHT22;978;48.314;11.562;2023-02-24T03:18:15;19.50;71.80
1956;DHT22;978;48.314;11.562;2023-02-24T03:20:46;19.50;71.80
1956;DHT22;978;48.314;11.562;2023-02-24T03:23:17;19.50;71.80
1956;DHT22;978;48.314;11.562;2023-02-24T03:25:52;19.50;71.80
1956;DHT22;978;48.314;11.562;2023-02-24T03:28:29;19.50;71.80
1956;DHT22;978;48.314;11.562;2023-02-24T03:31:01;19.50;71.80
1956;DHT22;978;48.314;11.562;2023-02-24T03:33:34;19.50;71.80
1956;DHT22;978;48.314;11.562;2023-02-24T03:36:03;19.50;71.80
1956;DHT22;978;48.314;11.562;2023-02-24T03:38:32;19.50;71.80
1956;DHT22;978;48.314;11.562;2023-02-24T03:40:59;19.40;71.80
1956;DHT22;978;48.314;11.562;2023-02-24T03:43:28;19.50;71.80
1956;DHT22;978;48.314;11.562;2023-02-24T03:45:56;19.50;71.80
1956;DHT22;978;48.314;11.562;2023-02-24T03:48:24;19.50;71.80
1956;DHT22;978;48.314;11.562;2023-02-24T03:50:52;19.50;71.90
1956;DHT22;978;48.314;11.562;2023-02-24T03:53:36;19.50;71.90
1956;DHT22;978;48.314;11.562;2023-02-24T03:56:16;19.50;71.90
1956;DHT22;978;48.314;11.562;2023-02-24T03:58:55;19.50;71.90
1956;DHT22;978;48.314;11.562;2023-02-24T04:01:30;19.50;71.80
1956;DHT22;978;48.314;11.562;2023-02-24T04:04:02;19.50;71.90
1956;DHT22;978;48.314;11.562;2023-02-24T04:06:33;19.50;71.90
1956;DHT22;978;48.314;11.562;2023-02-24T04:09:07;19.40;71.80
1956;DHT22;978;48.314;11.562;2023-02-24T04:11:41;19.50;71.80
1956;DHT22;978;48.314;11.562;2023-02-24T04:14:13;19.50;71.90
1956;DHT22;978;48.314;11.562;2023-02-24T04:16:50;19.40;71.80
1956;DHT22;978;48.314;11.562;2023-02-24T04:19:20;19.50;71.90
1956;DHT22;978;48.314;11.562;2023-02-24T04:21:48;19.50;71.90
1956;DHT22;978;48.314;11.562;2023-02-24T04:24:19;19.50;71.90
1956;DHT22;978;48.314;11.562;2023-02-24T04:26:48;19.50;71.90
1956;DHT22;978;48.314;11.562;2023-02-24T04:29:20;19.50;71.90
1956;DHT22;978;48.314;11.562;2023-02-24T04:31:50;19.50;71.90
1956;DHT22;978;48.314;11.562;2023-02-24T04:34:17;19.50;71.80
1956;DHT22;978;48.314;11.562;2023-02-24T04:36:44;19.40;71.80
1956;DHT22;978;48.314;11.562;2023-02-24T04:39:15;19.50;71.90
1956;DHT22;978;48.314;11.562;2023-02-24T04:41:44;19.50;71.90
1956;DHT22;978;48.314;11.562;2023-02-24T04:44:14;19.50;71.90
1956;DHT22;978;48.314;11.562;2023-02-24T04:46:42;19.50;71.80
1956;DHT22;978;48.314;11.562;2023-02-24T04:49:09;19.50;71.90
1956;DHT22;978;48.314;11.562;2023-02-24T04:51:37;19.50;71.90
1956;DHT22;978;48.314;11.562;2023-02-24T04:54:06;19.50;71.90
1956;DHT22;978;48.314;11.562;2023-02-24T04:56:34;19.50;71.90
1956;DHT22;978;48.314;11.562;2023-02-24T04:59:02;19.50;71.90
1956;DHT22;978;48.314;11.562;2023-02-24T05:01:29;19.50;71.90
1956;DHT22;978;48.314;11.562;2023-02-24T05:03:56;19.50;71.90
1956;DHT22;978;48.314;11.562;2023-02-24T05:06:24;19.50;71.80
1956;DHT22;978;48.314;11.562;2023-02-24T05:08:51;19.50;71.90
1956;DHT22;978;48.314;11.562;2023-02-24T05:11:18;19.50;71.80
1956;DHT22;978;48.314;11.562;2023-02-24T05:13:45;19.50;71.80
1956;DHT22;978;48.314;11.562;2023-02-24T05:16:15;19.50;71.80
1956;DHT22;978;48.314;11.562;2023-02-24T05:18:42;19.50;71.80
1956;DHT22;978;48.314;11.562;2023-02-24T05:21:11;19.50;71.80
1956;DHT22;978;48.314;11.562;2023-02-24T05:23:56;19.50;71.80
1956;DHT22;978;48.314;11.562;2023-02-24T05:26:24;19.50;71.80
1956;DHT22;978;48.314;11.562;2023-02-24T05:28:53;19.40;71.70
1956;DHT22;978;48.314;11.562;2023-02-24T05:31:23;19.50;71.80
1956;DHT22;978;48.314;11.562;2023-02-24T05:33:52;19.50;71.80
1956;DHT22;978;48.314;11.562;2023-02-24T05:36:21;19.50;71.80
1956;DHT22;978;48.314;11.562;2023-02-24T05:38:49;19.50;71.80
1956;DHT22;978;48.314;11.562;2023-02-24T05:41:21;19.50;71.80
1956;DHT22;978;48.314;11.562;2023-02-24T05:43:49;19.50;71.70
1956;DHT22;978;48.314;11.562;2023-02-24T05:46:19;19.50;71.10
1956;DHT22;978;48.314;11.562;2023-02-24T05:48:54;19.50;71.60
1956;DHT22;978;48.314;11.562;2023-02-24T05:51:22;19.50;71.60
1956;DHT22;978;48.314;11.562;2023-02-24T05:53:50;19.50;71.50
1956;DHT22;978;48.314;11.562;2023-02-24T05:56:20;19.50;71.40
1956;DHT22;978;48.314;11.562;2023-02-24T05:58:48;19.50;71.30
1956;DHT22;978;48.314;11.562;2023-02-24T06:01:15;19.50;71.20
1956;DHT22;978;48.314;11.562;2023-02-24T06:03:43;19.50;71.20
1956;DHT22;978;48.314;11.562;2023-02-24T06:06:13;19.50;71.10
1956;DHT22;978;48.314;11.562;2023-02-24T06:08:40;19.50;71.00
1956;DHT22;978;48.314;11.562;2023-02-24T06:11:14;19.50;70.80
1956;DHT22;978;48.314;11.562;2023-02-24T06:13:42;19.50;70.70
1956;DHT22;978;48.314;11.562;2023-02-24T06:16:12;19.50;70.60
1956;DHT22;978;48.314;11.562;2023-02-24T06:18:39;19.50;70.40
1956;DHT22;978;48.314;11.562;2023-02-24T06:21:06;19.50;70.30
1956;DHT22;978;48.314;11.562;2023-02-24T06:23:34;19.50;70.20
1956;DHT22;978;48.314;11.562;2023-02-24T06:26:01;19.50;70.10
1956;DHT22;978;48.314;11.562;2023-02-24T06:28:28;19.50;70.80
1956;DHT22;978;48.314;11.562;2023-02-24T06:30:55;19.50;69.90
1956;DHT22;978;48.314;11.562;2023-02-24T06:33:22;19.50;69.90
1956;DHT22;978;48.314;11.562;2023-02-24T06:35:51;19.50;69.80
1956;DHT22;978;48.314;11.562;2023-02-24T06:38:18;19.50;69.70
1956;DHT22;978;48.314;11.562;2023-02-24T06:40:46;19.50;69.70
1956;DHT22;978;48.314;11.562;2023-02-24T06:43:17;19.50;69.60
1956;DHT22;978;48.314;11.562;2023-02-24T06:45:43;19.50;69.50
1956;DHT22;978;48.314;11.562;2023-02-24T06:48:10;19.50;69.50
1956;DHT22;978;48.314;11.562;2023-02-24T06:50:37;19.50;69.50
1956;DHT22;978;48.314;11.562;2023-02-24T06:53:04;19.50;69.40
1956;DHT22;978;48.314;11.562;2023-02-24T06:55:41;19.50;69.40
1956;DHT22;978;48.314;11.562;2023-02-24T06:58:15;19.50;69.30
1956;DHT22;978;48.314;11.562;2023-02-24T07:00:42;19.50;69.20
1956;DHT22;978;48.314;11.562;2023-02-24T07:03:22;19.50;69.20
1956;DHT22;978;48.314;11.562;2023-02-24T07:05:50;19.50;69.20
1956;DHT22;978;48.314;11.562;2023-02-24T07:08:20;19.50;69.10
1956;DHT22;978;48.314;11.562;2023-02-24T07:10:52;19.50;69.00
1956;DHT22;978;48.314;11.562;2023-02-24T07:13:21;19.50;69.00
1956;DHT22;978;48.314;11.562;2023-02-24T07:15:48;19.50;69.00
1956;DHT22;978;48.314;11.562;2023-02-24T07:18:16;19.50;69.00
1956;DHT22;978;48.314;11.562;2023-02-24T07:20:44;19.50;68.90
1956;DHT22;978;48.314;11.562;2023-02-24T07:23:12;19.50;68.90
1956;DHT22;978;48.314;11.562;2023-02-24T07:25:39;19.50;68.90
1956;DHT22;978;48.314;11.562;2023-02-24T07:28:08;19.50;68.80
1956;DHT22;978;48.314;11.562;2023-02-24T07:30:37;19.50;68.80
1956;DHT22;978;48.314;11.562;2023-02-24T07:33:04;19.50;68.70
1956;DHT22;978;48.314;11.562;2023-02-24T07:35:31;19.50;68.70
1956;DHT22;978;48.314;11.562;2023-02-24T07:38:00;19.50;68.70
1956;DHT22;978;48.314;11.562;2023-02-24T07:40:29;19.50;68.70
1956;DHT22;978;48.314;11.562;2023-02-24T07:42:58;19.50;68.70
1956;DHT22;978;48.314;11.562;2023-02-24T07:45:24;19.50;68.60
1956;DHT22;978;48.314;11.562;2023-02-24T07:47:53;19.50;68.60
1956;DHT22;978;48.314;11.562;2023-02-24T07:50:19;19.50;68.50
1956;DHT22;978;48.314;11.562;2023-02-24T07:52:46;19.50;68.50
1956;DHT22;978;48.314;11.562;2023-02-24T07:55:14;19.50;68.50
1956;DHT22;978;48.314;11.562;2023-02-24T07:57:41;19.50;68.50
1956;DHT22;978;48.314;11.562;2023-02-24T08:00:13;19.50;68.40
1956;DHT22;978;48.314;11.562;2023-02-24T08:02:45;19.50;68.40
1956;DHT22;978;48.314;11.562;2023-02-24T08:05:14;19.50;68.40
1956;DHT22;978;48.314;11.562;2023-02-24T08:07:42;19.50;68.40
1956;DHT22;978;48.314;11.562;2023-02-24T08:10:14;19.50;68.40
1956;DHT22;978;48.314;11.562;2023-02-24T08:12:50;19.40;68.40
1956;DHT22;978;48.314;11.562;2023-02-24T08:15:19;19.50;68.50
1956;DHT22;978;48.314;11.562;2023-02-24T08:17:50;19.50;68.60
1956;DHT22;978;48.314;11.562;2023-02-24T08:20:19;19.50;68.60
1956;DHT22;978;48.314;11.562;2023-02-24T08:22:54;19.40;68.60
1956;DHT22;978;48.314;11.562;2023-02-24T08:25:23;19.40;68.60
1956;DHT22;978;48.314;11.562;2023-02-24T08:28:00;19.50;68.70
1956;DHT22;978;48.314;11.562;2023-02-24T08:30:31;19.50;68.70
1956;DHT22;978;48.314;11.562;2023-02-24T08:33:04;19.50;68.70
1956;DHT22;978;48.314;11.562;2023-02-24T08:35:34;19.40;68.70
1956;DHT22;978;48.314;11.562;2023-02-24T08:38:03;19.50;68.70
1956;DHT22;978;48.314;11.562;2023-02-24T08:40:33;19.40;68.70
1956;DHT22;978;48.314;11.562;2023-02-24T08:43:20;19.50;68.70
1956;DHT22;978;48.314;11.562;2023-02-24T08:45:58;19.50;68.70
1956;DHT22;978;48.314;11.562;2023-02-24T08:48:27;19.50;68.70
1956;DHT22;978;48.314;11.562;2023-02-24T08:51:07;19.50;68.70
1956;DHT22;978;48.314;11.562;2023-02-24T08:53:34;19.40;68.70
1956;DHT22;978;48.314;11.562;2023-02-24T08:56:06;19.50;68.70
1956;DHT22;978;48.314;11.562;2023-02-24T08:58:36;19.50;68.70
1956;DHT22;978;48.314;11.562;2023-02-24T09:01:06;19.50;68.70
1956;DHT22;978;48.314;11.562;2023-02-24T09:03:43;19.50;68.70
1956;DHT22;978;48.314;11.562;2023-02-24T09:06:14;19.50;68.70
1956;DHT22;978;48.314;11.562;2023-02-24T09:08:44;19.50;68.80
1956;DHT22;978;48.314;11.562;2023-02-24T09:11:13;19.50;68.70
1956;DHT22;978;48.314;11.562;2023-02-24T09:13:41;19.50;68.80
1956;DHT22;978;48.314;11.562;2023-02-24T09:16:16;19.40;68.70
1956;DHT22;978;48.314;11.562;2023-02-24T09:18:44;19.50;68.70
1956;DHT22;978;48.314;11.562;2023-02-24T09:21:32;19.50;68.80
1956;DHT22;978;48.314;11.562;2023-02-24T09:24:31;19.50;68.80
1956;DHT22;978;48.314;11.562;2023-02-24T09:26:57;19.40;68.70
1956;DHT22;978;48.314;11.562;2023-02-24T09:29:25;19.50;68.80
1956;DHT22;978;48.314;11.562;2023-02-24T09:32:14;19.50;68.80
1956;DHT22;978;48.314;11.562;2023-02-24T09:34:41;19.50;68.80
1956;DHT22;978;48.314;11.562;2023-02-24T09:37:11;19.50;68.80
1956;DHT22;978;48.314;11.562;2023-02-24T09:39:50;19.50;68.80
1956;DHT22;978;48.314;11.562;2023-02-24T09:42:44;19.50;68.80
1956;DHT22;978;48.314;11.562;2023-02-24T09:45:23;19.50;68.90
1956;DHT22;978;48.314;11.562;2023-02-24T09:47:59;19.50;68.90
1956;DHT22;978;48.314;11.562;2023-02-24T09:50:37;19.50;69.00
1956;DHT22;978;48.314;11.562;2023-02-24T09:53:14;19.50;69.10
1956;DHT22;978;48.314;11.562;2023-02-24T09:55:47;19.50;69.30
1956;DHT22;978;48.314;11.562;2023-02-24T09:58:35;19.50;69.40
1956;DHT22;978;48.314;11.562;2023-02-24T10:01:21;19.40;69.40
1956;DHT22;978;48.314;11.562;2023-02-24T10:03:56;19.50;69.50
1956;DHT22;978;48.314;11.562;2023-02-24T10:06:32;19.50;69.50
1956;DHT22;978;48.314;11.562;2023-02-24T10:09:08;19.50;69.60
1956;DHT22;978;48.314;11.562;2023-02-24T10:11:41;19.50;69.60
1956;DHT22;978;48.314;11.562;2023-02-24T10:14:22;19.50;69.60
1956;DHT22;978;48.314;11.562;2023-02-24T10:16:52;19.50;69.70
1956;DHT22;978;48.314;11.562;2023-02-24T10:19:44;19.50;69.70
1956;DHT22;978;48.314;11.562;2023-02-24T10:22:24;19.50;69.70
1956;DHT22;978;48.314;11.562;2023-02-24T10:25:02;19.50;69.80
1956;DHT22;978;48.314;11.562;2023-02-24T10:27:56;19.50;69.80
1956;DHT22;978;48.314;11.562;2023-02-24T10:30:33;19.50;69.80
1956;DHT22;978;48.314;11.562;2023-02-24T10:33:17;19.50;69.90
1956;DHT22;978;48.314;11.562;2023-02-24T10:35:45;19.50;70.00
1956;DHT22;978;48.314;11.562;2023-02-24T10:38:12;19.50;70.00
1956;DHT22;978;48.314;11.562;2023-02-24T10:40:46;19.50;70.00
1956;DHT22;978;48.314;11.562;2023-02-24T10:43:22;19.50;70.10
1956;DHT22;978;48.314;11.562;2023-02-24T10:45:55;19.50;70.10
1956;DHT22;978;48.314;11.562;2023-02-24T10:48:31;19.50;70.20
1956;DHT22;978;48.314;11.562;2023-02-24T10:51:12;19.50;70.20
1956;DHT22;978;48.314;11.562;2023-02-24T10:53:46;19.50;70.30
1956;DHT22;978;48.314;11.562;2023-02-24T10:56:19;19.50;70.40
1956;DHT22;978;48.314;11.562;2023-02-24T10:59:03;19.50;70.40
1956;DHT22;978;48.314;11.562;2023-02-24T11:02:15;19.50;70.50
1956;DHT22;978;48.314;11.562;2023-02-24T11:04:52;19.40;70.60
1956;DHT22;978;48.314;11.562;2023-02-24T11:07:49;19.50;70.70
1956;DHT22;978;48.314;11.562;2023-02-24T11:10:22;19.50;70.70
1956;DHT22;978;48.314;11.562;2023-02-24T11:12:59;19.50;70.80
1956;DHT22;978;48.314;11.562;2023-02-24T11:15:46;19.50;70.90
1956;DHT22;978;48.314;11.562;2023-02-24T11:18:32;19.50;70.90
1956;DHT22;978;48.314;11.562;2023-02-24T11:21:01;19.50;71.00
1956;DHT22;978;48.314;11.562;2023-02-24T11:23:32;19.50;71.10
1956;DHT22;978;48.314;11.562;2023-02-24T11:26:01;19.50;71.10
1956;DHT22;978;48.314;11.562;2023-02-24T11:29:06;19.50;71.20
1956;DHT22;978;48.314;11.562;2023-02-24T11:31:54;19.50;71.20
1956;DHT22;978;48.314;11.562;2023-02-24T11:34:32;19.50;71.20
1956;DHT22;978;48.314;11.562;2023-02-24T11:37:14;19.50;71.20
1956;DHT22;978;48.314;11.562;2023-02-24T11:39:51;19.50;71.20
1956;DHT22;978;48.314;11.562;2023-02-24T11:42:23;19.50;71.40
1956;DHT22;978;48.314;11.562;2023-02-24T11:44:57;19.50;71.40
1956;DHT22;978;48.314;11.562;2023-02-24T11:47:30;19.50;71.50
1956;DHT22;978;48.314;11.562;2023-02-24T11:50:13;19.50;71.60
1956;DHT22;978;48.314;11.562;2023-02-24T11:52:44;19.50;71.60
1956;DHT22;978;48.314;11.562;2023-02-24T11:55:23;19.50;71.70
1956;DHT22;978;48.314;11.562;2023-02-24T11:57:51;19.50;71.80
1956;DHT22;978;48.314;11.562;2023-02-24T12:00:24;19.50;71.80
1956;DHT22;978;48.314;11.562;2023-02-24T12:02:58;19.50;71.90
1956;DHT22;978;48.314;11.562;2023-02-24T12:05:30;19.50;71.90
1956;DHT22;978;48.314;11.562;2023-02-24T12:08:04;19.50;72.00
1956;DHT22;978;48.314;11.562;2023-02-24T12:10:34;19.50;72.00
1956;DHT22;978;48.314;11.562;2023-02-24T12:13:06;19.50;72.00
1956;DHT22;978;48.314;11.562;2023-02-24T12:15:41;19.50;72.00
1956;DHT22;978;48.314;11.562;2023-02-24T12:18:15;19.50;72.00
1956;DHT22;978;48.314;11.562;2023-02-24T12:20:47;19.50;72.00
1956;DHT22;978;48.314;11.562;2023-02-24T12:23:18;19.50;72.10
1956;DHT22;978;48.314;11.562;2023-02-24T12:26:00;19.50;72.10
1956;DHT22;978;48.314;11.562;2023-02-24T12:28:44;19.50;72.20
1956;DHT22;978;48.314;11.562;2023-02-24T12:31:24;19.50;72.20
1956;DHT22;978;48.314;11.562;2023-02-24T12:34:02;19.50;72.20
1956;DHT22;978;48.314;11.562;2023-02-24T12:36:48;19.50;72.20
1956;DHT22;978;48.314;11.562;2023-02-24T12:39:20;19.50;72.20
1956;DHT22;978;48.314;11.562;2023-02-24T12:42:00;19.50;72.20
1956;DHT22;978;48.314;11.562;2023-02-24T12:44:40;19.50;72.20
1956;DHT22;978;48.314;11.562;2023-02-24T12:47:13;19.50;72.30
1956;DHT22;978;48.314;11.562;2023-02-24T12:52:47;19.50;72.30
1956;DHT22;978;48.314;11.562;2023-02-24T12:55:21;19.50;72.30
1956;DHT22;978;48.314;11.562;2023-02-24T12:57:57;19.50;72.40
1956;DHT22;978;48.314;11.562;2023-02-24T13:00:32;19.50;72.40
1956;DHT22;978;48.314;11.562;2023-02-24T13:03:07;19.50;72.40
1956;DHT22;978;48.314;11.562;2023-02-24T13:05:45;19.50;72.50
1956;DHT22;978;48.314;11.562;2023-02-24T13:08:29;19.50;72.60
1956;DHT22;978;48.314;11.562;2023-02-24T13:11:02;19.50;72.60
1956;DHT22;978;48.314;11.562;2023-02-24T13:13:39;19.50;72.60
1956;DHT22;978;48.314;11.562;2023-02-24T13:16:10;19.50;72.60
1956;DHT22;978;48.314;11.562;2023-02-24T13:18:38;19.50;72.60
1956;DHT22;978;48.314;11.562;2023-02-24T13:21:07;19.50;72.70
1956;DHT22;978;48.314;11.562;2023-02-24T13:23:36;19.50;72.70
1956;DHT22;978;48.314;11.562;2023-02-24T13:26:06;19.50;72.70
1956;DHT22;978;48.314;11.562;2023-02-24T13:28:33;19.50;72.80
1956;DHT22;978;48.314;11.562;2023-02-24T13:31:04;19.50;72.80
1956;DHT22;978;48.314;11.562;2023-02-24T13:33:33;19.50;72.90
1956;DHT22;978;48.314;11.562;2023-02-24T13:36:23;19.50;72.90
1956;DHT22;978;48.314;11.562;2023-02-24T13:38:51;19.50;72.90
1956;DHT22;978;48.314;11.562;2023-02-24T13:41:35;19.50;73.00
1956;DHT22;978;48.314;11.562;2023-02-24T13:44:21;19.50;73.00
1956;DHT22;978;48.314;11.562;2023-02-24T13:47:03;19.50;73.00
1956;DHT22;978;48.314;11.562;2023-02-24T13:49:42;19.50;73.00
1956;DHT22;978;48.314;11.562;2023-02-24T13:52:19;19.50;73.10
1956;DHT22;978;48.314;11.562;2023-02-24T13:55:10;19.50;73.10
1956;DHT22;978;48.314;11.562;2023-02-24T13:57:51;19.50;73.10
1956;DHT22;978;48.314;11.562;2023-02-24T14:00:28;19.50;73.20
1956;DHT22;978;48.314;11.562;2023-02-24T14:02:57;19.50;73.70
1956;DHT22;978;48.314;11.562;2023-02-24T14:05:27;19.50;73.20
1956;DHT22;978;48.314;11.562;2023-02-24T14:07:57;19.50;73.20
1956;DHT22;978;48.314;11.562;2023-02-24T14:10:26;19.50;73.10
1956;DHT22;978;48.314;11.562;2023-02-24T14:13:01;19.50;73.30
1956;DHT22;978;48.314;11.562;2023-02-24T14:15:30;19.50;73.30
1956;DHT22;978;48.314;11.562;2023-02-24T14:17:58;19.50;73.20
1956;DHT22;978;48.314;11.562;2023-02-24T14:20:26;19.50;73.10
1956;DHT22;978;48.314;11.562;2023-02-24T14:22:55;19.50;73.20
1956;DHT22;978;48.314;11.562;2023-02-24T14:25:26;19.50;73.20
1956;DHT22;978;48.314;11.562;2023-02-24T14:27:55;19.50;73.20
1956;DHT22;978;48.314;11.562;2023-02-24T14:30:26;19.50;73.20
1956;DHT22;978;48.314;11.562;2023-02-24T14:32:55;19.50;73.20
1956;DHT22;978;48.314;11.562;2023-02-24T14:35:26;19.50;73.30
1956;DHT22;978;48.314;11.562;2023-02-24T14:37:54;19.50;73.40
1956;DHT22;978;48.314;11.562;2023-02-24T14:40:23;19.50;73.50
1956;DHT22;978;48.314;11.562;2023-02-24T14:42:51;19.50;73.60
1956;DHT22;978;48.314;11.562;2023-02-24T14:45:21;19.50;73.70
1956;DHT22;978;48.314;11.562;2023-02-24T14:47:49;19.50;73.80
1956;DHT22;978;48.314;11.562;2023-02-24T14:50:18;19.50;73.90
1956;DHT22;978;48.314;11.562;2023-02-24T14:52:46;19.50;74.00
1956;DHT22;978;48.314;11.562;2023-02-24T14:55:18;19.60;74.20
1956;DHT22;978;48.314;11.562;2023-02-24T14:57:53;19.60;74.30
1956;DHT22;978;48.314;11.562;2023-02-24T15:00:23;19.50;74.30
1956;DHT22;978;48.314;11.562;2023-02-24T15:02:55;19.50;74.30
1956;DHT22;978;48.314;11.562;2023-02-24T15:05:23;19.50;74.50
1956;DHT22;978;48.314;11.562;2023-02-24T15:07:50;19.50;74.50
1956;DHT22;978;48.314;11.562;2023-02-24T15:10:19;19.50;74.60
1956;DHT22;978;48.314;11.562;2023-02-24T15:12:50;19.60;74.80
1956;DHT22;978;48.314;11.562;2023-02-24T15:15:20;19.60;74.90
1956;DHT22;978;48.314;11.562;2023-02-24T15:17:51;19.60;75.00
1956;DHT22;978;48.314;11.562;2023-02-24T15:20:31;19.50;75.10
1956;DHT22;978;48.314;11.562;2023-02-24T15:22:59;19.50;75.10
1956;DHT22;978;48.314;11.562;2023-02-24T15:25:27;19.60;75.20
1956;DHT22;978;48.314;11.562;2023-02-24T15:27:57;19.50;75.30
1956;DHT22;978;48.314;11.562;2023-02-24T15:30:31;19.50;75.30
1956;DHT22;978;48.314;11.562;2023-02-24T15:33:03;19.50;75.40
1956;DHT22;978;48.314;11.562;2023-02-24T15:35:32;19.60;75.50
1956;DHT22;978;48.314;11.562;2023-02-24T15:38:01;19.60;75.60
1956;DHT22;978;48.314;11.562;2023-02-24T15:40:28;19.60;75.70
1956;DHT22;978;48.314;11.562;2023-02-24T15:42:59;19.60;75.70
1956;DHT22;978;48.314;11.562;2023-02-24T15:45:34;19.60;75.90
1956;DHT22;978;48.314;11.562;2023-02-24T15:48:02;19.60;75.90
1956;DHT22;978;48.314;11.562;2023-02-24T15:50:31;19.60;76.90
1956;DHT22;978;48.314;11.562;2023-02-24T15:52:59;19.60;76.40
1956;DHT22;978;48.314;11.562;2023-02-24T15:55:27;19.60;76.80
1956;DHT22;978;48.314;11.562;2023-02-24T15:58:00;19.60;77.20
1956;DHT22;978;48.314;11.562;2023-02-24T16:00:28;19.60;76.80
1956;DHT22;978;48.314;11.562;2023-02-24T16:02:55;19.60;77.00
1956;DHT22;978;48.314;11.562;2023-02-24T16:05:22;19.60;77.10
1956;DHT22;978;48.314;11.562;2023-02-24T16:07:49;19.60;77.50
1956;DHT22;978;48.314;11.562;2023-02-24T16:10:20;19.60;77.80
1956;DHT22;978;48.314;11.562;2023-02-24T16:12:49;19.60;76.50
1956;DHT22;978;48.314;11.562;2023-02-24T16:15:22;19.60;76.70
1956;DHT22;978;48.314;11.562;2023-02-24T16:17:51;19.70;76.30
1956;DHT22;978;48.314;11.562;2023-02-24T16:20:20;19.70;76.90
1956;DHT22;978;48.314;11.562;2023-02-24T16:22:55;19.70;76.90
1956;DHT22;978;48.314;11.562;2023-02-24T16:25:22;19.70;78.00
1956;DHT22;978;48.314;11.562;2023-02-24T16:27:49;19.70;78.80
1956;DHT22;978;48.314;11.562;2023-02-24T16:30:24;19.70;79.80
1956;DHT22;978;48.314;11.562;2023-02-24T16:32:53;19.70;80.10
1956;DHT22;978;48.314;11.562;2023-02-24T16:35:20;19.70;80.00
1956;DHT22;978;48.314;11.562;2023-02-24T16:37:47;19.70;80.30
1956;DHT22;978;48.314;11.562;2023-02-24T16:40:20;19.70;80.10
1956;DHT22;978;48.314;11.562;2023-02-24T16:42:48;19.70;80.30